Time;durP1;ratioP1;P1;durP2;ratioP2;P2;SDS_P1;SDS_P2;PMS_P1;PMS_P2;Temp;Humidity;BMP_temperature;BMP_pressure;BME280_temperature;BME280_humidity;BME280_pressure;Samples;Min_cycle;Max_cycle;Signal;HPM_P1;HPM_P2
2023/09/10 00:00:20;;;;;;;;;;;16.60;99.90;;;;;;5091003;28;19924;-67
2023/09/10 00:02:46;;;;;;;;;;;16.60;99.90;;;;;;5090109;28;20359;-67
2023/09/10 00:05:11;;;;;;;;;;;16.60;99.90;;;;;;5092365;28;19946;-66
2023/09/10 00:07:37;;;;;;;;;;;16.60;99.90;;;;;;5090526;28;20140;-67
2023/09/10 00:10:03;;;;;;;;;;;16.60;99.90;;;;;;5106633;27;19927;-67
2023/09/10 00:12:28;;;;;;;;;;;16.60;99.90;;;;;;5091119;28;19924;-67
2023/09/10 00:14:54;;;;;;;;;;;16.60;99.90;;;;;;5106935;27;19923;-68
2023/09/10 00:17:19;;;;;;;;;;;16.60;99.90;;;;;;5093268;28;19927;-67
2023/09/10 00:19:45;;;;;;;;;;;16.60;99.90;;;;;;5090204;28;20409;-67
2023/09/10 00:22:11;;;;;;;;;;;16.60;99.90;;;;;;5107185;27;19923;-66
2023/09/10 00:24:36;;;;;;;;;;;16.60;99.90;;;;;;5090936;28;20162;-66
2023/09/10 00:27:03;;;;;;;;;;;16.60;99.90;;;;;;5107009;27;19924;-66
2023/09/10 00:29:28;;;;;;;;;;;16.60;99.90;;;;;;5090308;28;20378;-66
2023/09/10 00:31:54;;;;;;;;;;;16.60;99.90;;;;;;5090956;28;19927;-66
2023/09/10 00:34:20;;;;;;;;;;;16.50;99.90;;;;;;5090918;28;19928;-67
2023/09/10 00:36:45;;;;;;;;;;;16.50;99.90;;;;;;5073576;28;19923;-67
2023/09/10 00:39:11;;;;;;;;;;;16.50;99.90;;;;;;5089769;28;20099;-67
2023/09/10 00:41:36;;;;;;;;;;;16.40;99.90;;;;;;5107079;27;20138;-67
2023/09/10 00:44:03;;;;;;;;;;;16.40;99.90;;;;;;5091450;28;19934;-67
2023/09/10 00:46:29;;;;;;;;;;;16.40;99.90;;;;;;5090252;28;19976;-67
2023/09/10 00:48:55;;;;;;;;;;;16.40;99.90;;;;;;5090419;28;19923;-67
2023/09/10 00:51:21;;;;;;;;;;;16.40;99.90;;;;;;5122202;27;19932;-67
2023/09/10 00:53:47;;;;;;;;;;;16.40;99.90;;;;;;5105199;27;20725;-67
2023/09/10 00:56:13;;;;;;;;;;;16.40;99.90;;;;;;5124031;27;19924;-67
2023/09/10 00:58:38;;;;;;;;;;;16.30;99.90;;;;;;5089681;28;19936;-67
2023/09/10 01:01:04;;;;;;;;;;;16.40;99.90;;;;;;5124741;27;19967;-67
2023/09/10 01:03:33;;;;;;;;;;;16.30;99.90;;;;;;5089548;28;19931;-68
2023/09/10 01:05:59;;;;;;;;;;;16.30;99.90;;;;;;5089759;28;19952;-66
2023/09/10 01:08:24;;;;;;;;;;;16.20;99.90;;;;;;5072786;28;20239;-67
2023/09/10 01:11:02;;;;;;;;;;;16.20;99.90;;;;;;5089472;28;20199;-67
2023/09/10 01:13:37;;;;;;;;;;;16.30;99.90;;;;;;5071660;28;19928;-67
2023/09/10 01:16:11;;;;;;;;;;;16.20;99.90;;;;;;5089473;28;20211;-67
2023/09/10 01:18:48;;;;;;;;;;;16.20;99.90;;;;;;5123365;27;19966;-67
2023/09/10 01:21:21;;;;;;;;;;;16.20;99.90;;;;;;5089770;28;19981;-67
2023/09/10 01:24:06;;;;;;;;;;;16.30;99.90;;;;;;5090075;28;20348;-67
2023/09/10 01:26:31;;;;;;;;;;;16.30;99.90;;;;;;5122684;27;19927;-67
2023/09/10 01:28:57;;;;;;;;;;;16.30;99.90;;;;;;5071762;28;20135;-67
2023/09/10 01:31:23;;;;;;;;;;;16.30;99.90;;;;;;5106536;27;19928;-67
2023/09/10 01:33:51;;;;;;;;;;;16.40;99.90;;;;;;5105418;27;19924;-67
2023/09/10 01:36:26;;;;;;;;;;;16.30;99.90;;;;;;5089558;28;19950;-67
2023/09/10 01:38:54;;;;;;;;;;;16.40;99.90;;;;;;5090627;28;20021;-67
2023/09/10 01:41:20;;;;;;;;;;;16.30;99.90;;;;;;5105751;27;19930;-67
2023/09/10 01:43:46;;;;;;;;;;;16.30;99.90;;;;;;5105900;28;20337;-66
2023/09/10 01:46:12;;;;;;;;;;;16.40;99.90;;;;;;5122842;27;19924;-67
2023/09/10 01:48:38;;;;;;;;;;;16.20;99.90;;;;;;5104789;28;20030;-67
2023/09/10 01:51:04;;;;;;;;;;;16.40;99.90;;;;;;5072400;28;20023;-67
2023/09/10 01:53:30;;;;;;;;;;;16.30;99.90;;;;;;5089578;28;19961;-67
2023/09/10 01:55:55;;;;;;;;;;;16.30;99.90;;;;;;5122528;27;19924;-66
2023/09/10 01:58:21;;;;;;;;;;;16.20;99.90;;;;;;5105054;27;20023;-67
2023/09/10 02:00:47;;;;;;;;;;;16.30;99.90;;;;;;5090318;28;19950;-67
2023/09/10 02:03:13;;;;;;;;;;;16.30;99.90;;;;;;5104881;28;20026;-67
2023/09/10 02:05:44;;;;;;;;;;;16.30;99.90;;;;;;5122871;27;19938;-67
2023/09/10 02:08:09;;;;;;;;;;;16.30;99.90;;;;;;5089003;28;19924;-67
2023/09/10 02:10:35;;;;;;;;;;;16.30;99.90;;;;;;5090760;28;20094;-66
2023/09/10 02:13:01;;;;;;;;;;;16.40;99.90;;;;;;5089522;28;19931;-67
2023/09/10 02:15:26;;;;;;;;;;;16.30;99.90;;;;;;5072526;28;20016;-66
2023/09/10 02:17:52;;;;;;;;;;;16.30;99.90;;;;;;5090443;28;19997;-66
2023/09/10 02:20:18;;;;;;;;;;;16.20;99.90;;;;;;5089855;28;20049;-67
2023/09/10 02:22:44;;;;;;;;;;;16.10;99.90;;;;;;5105951;28;20347;-67
2023/09/10 02:25:09;;;;;;;;;;;16.20;99.90;;;;;;5075318;28;20408;-67
2023/09/10 02:27:35;;;;;;;;;;;16.30;99.90;;;;;;5093654;28;19924;-67
2023/09/10 02:30:03;;;;;;;;;;;16.30;99.90;;;;;;5092642;28;19923;-67
2023/09/10 02:32:28;;;;;;;;;;;16.10;99.90;;;;;;5093133;28;19919;-66
2023/09/10 02:34:54;;;;;;;;;;;16.20;99.90;;;;;;5093095;28;20171;-66
2023/09/10 02:37:20;;;;;;;;;;;16.20;99.90;;;;;;5108446;27;20624;-66
2023/09/10 02:39:46;;;;;;;;;;;16.30;99.90;;;;;;5075946;28;19928;-67
2023/09/10 02:42:12;;;;;;;;;;;16.20;99.90;;;;;;5093073;28;19934;-67
2023/09/10 02:44:37;;;;;;;;;;;16.20;99.90;;;;;;5075981;28;20026;-67
2023/09/10 02:47:03;;;;;;;;;;;16.10;99.90;;;;;;5108625;27;20357;-67
2023/09/10 02:49:28;;;;;;;;;;;16.00;99.90;;;;;;5092630;28;19923;-67
2023/09/10 02:51:54;;;;;;;;;;;16.00;99.90;;;;;;5092533;28;19934;-67
2023/09/10 02:54:20;;;;;;;;;;;16.00;99.90;;;;;;5092512;28;20052;-68
2023/09/10 02:56:46;;;;;;;;;;;16.10;99.90;;;;;;5126067;27;19985;-68
2023/09/10 02:59:21;;;;;;;;;;;16.00;99.90;;;;;;5093186;28;20401;-68
2023/09/10 03:01:47;;;;;;;;;;;16.10;99.90;;;;;;5075631;28;19927;-66
2023/09/10 03:04:13;;;;;;;;;;;16.00;99.90;;;;;;5092365;28;19924;-66
2023/09/10 03:06:41;;;;;;;;;;;15.90;99.90;;;;;;5092001;28;20030;-67
2023/09/10 03:09:06;;;;;;;;;;;16.10;99.90;;;;;;5093744;28;19923;-66
2023/09/10 03:11:33;;;;;;;;;;;15.90;99.90;;;;;;5092267;28;19930;-66
2023/09/10 03:13:59;;;;;;;;;;;15.90;99.90;;;;;;5108042;27;19938;-67
2023/09/10 03:16:25;;;;;;;;;;;16.00;99.90;;;;;;5091224;28;20115;-67
2023/09/10 03:18:50;;;;;;;;;;;16.10;99.90;;;;;;5107193;27;19997;-67
2023/09/10 03:21:16;;;;;;;;;;;16.00;99.90;;;;;;5074807;28;20739;-66
2023/09/10 03:23:41;;;;;;;;;;;16.00;99.90;;;;;;5108986;27;19928;-67
2023/09/10 03:26:10;;;;;;;;;;;16.10;99.90;;;;;;5124990;27;19927;-66
2023/09/10 03:28:35;;;;;;;;;;;16.10;99.90;;;;;;5091396;28;19924;-67
2023/09/10 03:31:01;;;;;;;;;;;16.20;99.90;;;;;;5124146;27;20059;-67
2023/09/10 03:33:26;;;;;;;;;;;16.10;99.90;;;;;;5092658;28;19953;-67
2023/09/10 03:35:52;;;;;;;;;;;16.30;99.90;;;;;;5074536;28;19924;-67
2023/09/10 03:38:17;;;;;;;;;;;16.30;99.90;;;;;;5091332;28;20421;-67
2023/09/10 03:40:43;;;;;;;;;;;16.10;99.90;;;;;;5123760;27;19923;-67
2023/09/10 03:43:08;;;;;;;;;;;16.00;99.90;;;;;;5091654;28;20180;-67
2023/09/10 03:45:34;;;;;;;;;;;16.00;99.90;;;;;;5091014;28;19938;-67
2023/09/10 03:47:59;;;;;;;;;;;16.10;99.90;;;;;;5107508;27;19962;-66
2023/09/10 03:50:25;;;;;;;;;;;16.00;99.90;;;;;;5108242;27;19934;-67
2023/09/10 03:52:52;;;;;;;;;;;16.00;99.90;;;;;;5107805;27;19958;-66
2023/09/10 03:55:17;;;;;;;;;;;15.90;99.90;;;;;;5090965;27;19924;-67
2023/09/10 03:57:43;;;;;;;;;;;16.00;99.90;;;;;;5073339;27;19930;-67
2023/09/10 04:00:09;;;;;;;;;;;15.90;99.90;;;;;;5091377;27;19923;-67
2023/09/10 04:02:34;;;;;;;;;;;15.80;99.90;;;;;;5091484;27;19924;-67
2023/09/10 04:05:00;;;;;;;;;;;16.00;99.90;;;;;;5090290;27;19930;-66
2023/09/10 04:07:26;;;;;;;;;;;16.10;99.90;;;;;;5090361;27;20098;-67
2023/09/10 04:09:51;;;;;;;;;;;16.10;99.90;;;;;;5090752;27;19957;-66
2023/09/10 04:12:17;;;;;;;;;;;16.10;99.90;;;;;;5074927;27;19973;-67
2023/09/10 04:14:42;;;;;;;;;;;16.10;99.90;;;;;;5107680;27;19988;-67
2023/09/10 04:17:08;;;;;;;;;;;16.30;99.90;;;;;;5091366;27;20703;-66
2023/09/10 04:19:33;;;;;;;;;;;16.30;99.90;;;;;;5090522;27;20725;-67
2023/09/10 04:21:59;;;;;;;;;;;16.40;99.90;;;;;;5091080;27;20246;-67
2023/09/10 04:24:25;;;;;;;;;;;16.30;99.90;;;;;;5090989;27;20017;-66
2023/09/10 04:26:50;;;;;;;;;;;16.40;99.90;;;;;;5072722;28;19931;-68
2023/09/10 04:29:16;;;;;;;;;;;16.30;99.90;;;;;;5093073;28;19924;-67
2023/09/10 04:31:44;;;;;;;;;;;16.10;99.90;;;;;;5073789;28;20030;-67
2023/09/10 04:34:10;;;;;;;;;;;16.10;99.90;;;;;;5123750;27;20427;-68
2023/09/10 04:36:36;;;;;;;;;;;16.00;99.90;;;;;;5073394;28;19923;-68
2023/09/10 04:39:08;;;;;;;;;;;16.00;99.90;;;;;;5089938;28;19928;-67
2023/09/10 04:41:33;;;;;;;;;;;16.00;99.90;;;;;;5092361;28;20104;-67
2023/09/10 04:43:59;;;;;;;;;;;15.90;99.90;;;;;;5090552;28;19924;-67
2023/09/10 04:46:27;;;;;;;;;;;16.10;99.90;;;;;;5090039;28;20246;-67
2023/09/10 04:48:52;;;;;;;;;;;16.20;99.90;;;;;;5091156;28;20381;-67
2023/09/10 04:51:18;;;;;;;;;;;16.00;99.90;;;;;;5123045;27;20253;-68
2023/09/10 04:53:44;;;;;;;;;;;16.20;99.90;;;;;;5089351;28;20023;-67
2023/09/10 04:56:12;;;;;;;;;;;16.30;99.90;;;;;;5090283;28;20048;-67
2023/09/10 04:58:38;;;;;;;;;;;16.30;99.90;;;;;;5089925;28;19950;-67
2023/09/10 05:01:04;;;;;;;;;;;16.10;99.90;;;;;;5089735;28;19927;-67
2023/09/10 05:03:29;;;;;;;;;;;16.10;99.90;;;;;;5073212;28;20399;-67
2023/09/10 05:05:56;;;;;;;;;;;16.20;99.90;;;;;;5089405;28;19924;-67
2023/09/10 05:08:21;;;;;;;;;;;16.30;99.90;;;;;;5072269;28;20008;-67
2023/09/10 05:10:48;;;;;;;;;;;16.10;99.90;;;;;;5090481;28;20014;-66
2023/09/10 05:13:14;;;;;;;;;;;16.30;99.90;;;;;;5090461;28;19999;-67
2023/09/10 05:15:39;;;;;;;;;;;16.30;99.90;;;;;;5090183;28;20371;-67
2023/09/10 05:18:05;;;;;;;;;;;16.10;99.90;;;;;;5089223;28;19935;-67
2023/09/10 05:20:31;;;;;;;;;;;16.20;99.90;;;;;;5072974;28;19924;-67
2023/09/10 05:22:57;;;;;;;;;;;16.20;99.90;;;;;;5123034;27;20424;-67
2023/09/10 05:25:23;;;;;;;;;;;16.40;99.90;;;;;;5123890;27;19924;-67
2023/09/10 05:27:48;;;;;;;;;;;16.10;99.90;;;;;;5073863;28;19928;-67
2023/09/10 05:30:14;;;;;;;;;;;16.30;99.90;;;;;;5072250;28;20263;-66
2023/09/10 05:32:39;;;;;;;;;;;16.20;99.90;;;;;;5072551;28;19935;-66
2023/09/10 05:35:05;;;;;;;;;;;16.20;99.90;;;;;;5091421;28;20112;-67
2023/09/10 05:37:31;;;;;;;;;;;16.20;99.90;;;;;;5089420;28;20000;-67
2023/09/10 05:39:56;;;;;;;;;;;16.30;99.90;;;;;;5105565;27;19928;-67
2023/09/10 05:42:22;;;;;;;;;;;16.40;99.90;;;;;;5090006;28;19924;-67
2023/09/10 05:44:52;;;;;;;;;;;16.30;99.90;;;;;;5089959;28;19946;-66
2023/09/10 05:47:19;;;;;;;;;;;16.40;99.90;;;;;;5122199;27;20179;-66
2023/09/10 05:49:51;;;;;;;;;;;16.50;99.90;;;;;;5089539;28;20189;-66
2023/09/10 05:52:16;;;;;;;;;;;16.40;99.90;;;;;;5089362;28;20157;-67
2023/09/10 05:54:42;;;;;;;;;;;16.30;99.90;;;;;;5089010;28;19986;-66
2023/09/10 05:57:08;;;;;;;;;;;16.50;99.90;;;;;;5121615;27;19927;-67
2023/09/10 05:59:33;;;;;;;;;;;16.50;99.90;;;;;;5091643;28;20397;-67
2023/09/10 06:01:59;;;;;;;;;;;16.60;99.90;;;;;;5093575;28;20089;-67
2023/09/10 06:04:24;;;;;;;;;;;16.90;99.90;;;;;;5109404;27;20183;-67
2023/09/10 06:06:50;;;;;;;;;;;16.80;99.90;;;;;;5092262;28;20372;-67
2023/09/10 06:09:15;;;;;;;;;;;17.10;99.90;;;;;;5092973;28;19927;-66
2023/09/10 06:11:41;;;;;;;;;;;17.00;99.90;;;;;;5075161;28;19920;-67
2023/09/10 06:14:07;;;;;;;;;;;17.10;99.90;;;;;;5109084;27;20298;-66
2023/09/10 06:16:33;;;;;;;;;;;17.20;99.90;;;;;;5092233;28;19928;-66
2023/09/10 06:18:58;;;;;;;;;;;17.40;99.90;;;;;;5107407;27;20064;-67
2023/09/10 06:21:24;;;;;;;;;;;17.70;99.90;;;;;;5093152;28;19923;-67
2023/09/10 06:23:49;;;;;;;;;;;17.80;99.90;;;;;;5127217;27;19930;-66
2023/09/10 06:26:15;;;;;;;;;;;18.10;99.90;;;;;;5092378;28;19973;-67
2023/09/10 06:28:40;;;;;;;;;;;18.20;99.90;;;;;;5109231;27;20377;-67
2023/09/10 06:31:06;;;;;;;;;;;18.50;99.90;;;;;;5075952;28;19924;-67
2023/09/10 06:33:33;;;;;;;;;;;18.90;99.90;;;;;;5109003;27;20036;-65
2023/09/10 06:35:59;;;;;;;;;;;19.00;99.90;;;;;;5092147;28;19924;-67
2023/09/10 06:38:24;;;;;;;;;;;19.30;99.90;;;;;;5106212;27;19929;-67
2023/09/10 06:40:51;;;;;;;;;;;19.30;99.90;;;;;;5077410;28;20127;-67
2023/09/10 06:43:16;;;;;;;;;;;19.50;99.90;;;;;;5093455;28;19959;-67
2023/09/10 06:45:43;;;;;;;;;;;19.70;99.90;;;;;;5092880;28;19938;-67
2023/09/10 06:48:09;;;;;;;;;;;19.90;99.90;;;;;;5126236;27;19980;-67
2023/09/10 06:50:34;;;;;;;;;;;20.10;99.90;;;;;;5093721;28;20266;-66
2023/09/10 06:53:00;;;;;;;;;;;20.40;99.90;;;;;;5076730;28;20354;-67
2023/09/10 06:55:26;;;;;;;;;;;20.50;99.90;;;;;;5129045;27;20248;-67
2023/09/10 06:57:51;;;;;;;;;;;20.70;99.90;;;;;;5095405;28;20498;-67
2023/09/10 07:00:18;;;;;;;;;;;20.80;99.90;;;;;;5094045;28;19951;-67
2023/09/10 07:02:43;;;;;;;;;;;21.00;99.90;;;;;;5110869;27;20014;-66
2023/09/10 07:05:09;;;;;;;;;;;21.10;99.90;;;;;;5093982;28;20483;-66
2023/09/10 07:07:35;;;;;;;;;;;21.00;99.90;;;;;;5109684;27;19924;-66
2023/09/10 07:10:01;;;;;;;;;;;21.30;99.90;;;;;;5092386;28;19923;-67
2023/09/10 07:12:26;;;;;;;;;;;21.60;99.90;;;;;;5125075;27;19923;-67
2023/09/10 07:14:52;;;;;;;;;;;21.90;99.90;;;;;;5111010;27;19924;-66
2023/09/10 07:17:18;;;;;;;;;;;22.00;99.90;;;;;;5093060;28;19927;-68
2023/09/10 07:19:43;;;;;;;;;;;22.20;99.90;;;;;;5125418;27;19928;-67
2023/09/10 07:22:09;;;;;;;;;;;22.30;99.90;;;;;;5108206;27;20361;-66
2023/09/10 07:24:35;;;;;;;;;;;22.40;99.90;;;;;;5107541;27;19924;-67
2023/09/10 07:27:01;;;;;;;;;;;22.70;99.90;;;;;;5109132;27;19920;-67
2023/09/10 07:29:27;;;;;;;;;;;23.00;99.90;;;;;;5092517;28;19923;-66
2023/09/10 07:31:53;;;;;;;;;;;23.10;99.90;;;;;;5091116;28;20377;-66
2023/09/10 07:34:19;;;;;;;;;;;23.20;99.90;;;;;;5092123;28;20405;-66
2023/09/10 07:36:46;;;;;;;;;;;23.30;99.90;;;;;;5092257;28;19924;-67
2023/09/10 07:39:12;;;;;;;;;;;23.50;99.90;;;;;;5092981;28;19934;-66
2023/09/10 07:41:37;;;;;;;;;;;23.60;99.90;;;;;;5127975;27;19923;-65
2023/09/10 07:44:03;;;;;;;;;;;23.50;99.90;;;;;;5093411;28;19931;-67
2023/09/10 07:46:29;;;;;;;;;;;23.50;99.90;;;;;;5095387;28;20511;-67
2023/09/10 07:48:54;;;;;;;;;;;23.70;99.90;;;;;;5094417;28;19931;-66
2023/09/10 07:51:20;;;;;;;;;;;23.90;99.90;;;;;;5076481;28;19931;-66
2023/09/10 07:53:46;;;;;;;;;;;24.20;99.90;;;;;;5128275;27;19924;-66
2023/09/10 07:56:11;;;;;;;;;;;24.20;99.90;;;;;;5127750;27;19934;-66
2023/09/10 07:58:37;;;;;;;;;;;24.20;99.90;;;;;;5093480;28;19928;-66
2023/09/10 08:01:03;;;;;;;;;;;24.10;99.90;;;;;;5092753;28;19931;-66
2023/09/10 08:03:29;;;;;;;;;;;24.00;99.90;;;;;;5110049;27;19986;-66
2023/09/10 08:05:54;;;;;;;;;;;23.90;99.90;;;;;;5092390;28;19931;-67
2023/09/10 08:08:20;;;;;;;;;;;23.80;99.90;;;;;;5092573;28;19923;-66
2023/09/10 08:10:46;;;;;;;;;;;24.00;99.90;;;;;;5110021;27;19924;-66
2023/09/10 08:13:12;;;;;;;;;;;24.10;99.90;;;;;;5108926;27;19919;-67
2023/09/10 08:15:38;;;;;;;;;;;24.20;99.90;;;;;;5092320;28;20298;-67
2023/09/10 08:18:08;;;;;;;;;;;24.30;99.90;;;;;;5092713;28;19989;-66
2023/09/10 08:20:34;;;;;;;;;;;24.20;99.90;;;;;;5092844;28;20002;-67
2023/09/10 08:22:59;;;;;;;;;;;24.00;99.90;;;;;;5091083;28;19923;-67
2023/09/10 08:25:25;;;;;;;;;;;24.20;99.90;;;;;;5092618;28;19924;-67
2023/09/10 08:27:50;;;;;;;;;;;24.20;99.90;;;;;;5092529;28;20466;-67
2023/09/10 08:30:16;;;;;;;;;;;24.00;99.90;;;;;;5092364;28;19923;-66
2023/09/10 08:32:45;;;;;;;;;;;23.70;99.90;;;;;;5092665;28;20111;-67
2023/09/10 08:35:11;;;;;;;;;;;23.70;99.90;;;;;;5092583;28;19946;-67
2023/09/10 08:37:36;;;;;;;;;;;23.70;99.90;;;;;;5126445;27;19927;-66
2023/09/10 08:40:03;;;;;;;;;;;23.70;99.90;;;;;;5091926;28;19924;-67
2023/09/10 08:42:32;;;;;;;;;;;23.70;99.90;;;;;;5094033;28;20040;-66
2023/09/10 08:45:00;;;;;;;;;;;23.80;99.90;;;;;;5093237;28;19923;-67
2023/09/10 08:47:29;;;;;;;;;;;24.00;99.90;;;;;;5093696;28;19924;-67
2023/09/10 08:49:59;;;;;;;;;;;24.10;99.90;;;;;;5126140;27;19920;-65
2023/09/10 08:52:25;;;;;;;;;;;24.20;99.90;;;;;;5092180;28;19950;-66
2023/09/10 08:54:51;;;;;;;;;;;24.10;99.90;;;;;;5092634;28;19924;-67
2023/09/10 08:57:17;;;;;;;;;;;24.10;99.90;;;;;;5091697;28;19950;-67
2023/09/10 08:59:43;;;;;;;;;;;24.30;99.90;;;;;;5074899;28;19934;-66
2023/09/10 09:02:09;;;;;;;;;;;24.50;99.90;;;;;;5091610;28;20119;-67
2023/09/10 09:04:35;;;;;;;;;;;24.90;99.90;;;;;;5093557;28;19973;-67
2023/09/10 09:07:02;;;;;;;;;;;25.20;99.90;;;;;;5075151;28;20109;-67
2023/09/10 09:09:33;;;;;;;;;;;25.30;99.90;;;;;;5108844;27;20378;-67
2023/09/10 09:12:00;;;;;;;;;;;25.50;99.90;;;;;;5091892;28;20006;-68
2023/09/10 09:14:27;;;;;;;;;;;25.70;99.90;;;;;;5109035;27;19928;-66
2023/09/10 09:16:53;;;;;;;;;;;26.00;99.90;;;;;;5091745;28;20191;-67
2023/09/10 09:19:20;;;;;;;;;;;26.00;99.90;;;;;;5092038;28;20420;-67
2023/09/10 09:21:46;;;;;;;;;;;26.10;99.90;;;;;;5074728;28;19923;-66
2023/09/10 09:24:13;;;;;;;;;;;25.70;99.90;;;;;;5126077;27;20676;-67
2023/09/10 09:26:41;;;;;;;;;;;25.90;99.90;;;;;;5074135;28;19967;-65
2023/09/10 09:29:07;;;;;;;;;;;25.90;99.90;;;;;;5091732;28;20741;-66
2023/09/10 09:31:33;;;;;;;;;;;25.70;99.90;;;;;;5090985;28;19930;-67
2023/09/10 09:33:58;;;;;;;;;;;25.80;99.90;;;;;;5091556;28;19924;-67
2023/09/10 09:36:25;;;;;;;;;;;25.90;99.90;;;;;;5091653;28;19923;-67
2023/09/10 09:38:51;;;;;;;;;;;26.00;99.90;;;;;;5108374;28;20776;-67
2023/09/10 09:41:17;;;;;;;;;;;26.10;99.90;;;;;;5108433;28;19930;-67
2023/09/10 09:43:43;;;;;;;;;;;26.50;99.90;;;;;;5108341;28;19934;-67
2023/09/10 09:46:08;;;;;;;;;;;26.70;99.90;;;;;;5092548;28;20225;-67
2023/09/10 09:48:34;;;;;;;;;;;26.50;99.90;;;;;;5125412;27;21024;-68
2023/09/10 09:51:01;;;;;;;;;;;26.20;99.90;;;;;;5074981;28;19934;-67
2023/09/10 09:53:28;;;;;;;;;;;25.90;99.90;;;;;;5090917;28;20412;-67
2023/09/10 09:55:55;;;;;;;;;;;25.80;99.90;;;;;;5124955;27;20321;-67
2023/09/10 09:58:21;;;;;;;;;;;25.80;99.90;;;;;;5125474;27;19928;-67
2023/09/10 10:00:46;;;;;;;;;;;25.80;99.90;;;;;;5090542;28;19919;-67
2023/09/10 10:03:12;;;;;;;;;;;26.10;99.90;;;;;;5108217;27;19988;-67
2023/09/10 10:05:38;;;;;;;;;;;26.30;99.90;;;;;;5125994;27;20189;-67
2023/09/10 10:08:04;;;;;;;;;;;26.70;99.90;;;;;;5090542;28;19927;-67
2023/09/10 10:10:29;;;;;;;;;;;26.80;94.50;;;;;;5125560;27;19924;-67
2023/09/10 10:12:55;;;;;;;;;;;26.70;91.70;;;;;;5091098;28;19979;-67
2023/09/10 10:15:22;;;;;;;;;;;26.80;75.80;;;;;;5123837;27;19994;-67
2023/09/10 10:17:47;;;;;;;;;;;26.80;65.60;;;;;;5090115;28;19934;-68
2023/09/10 10:20:13;;;;;;;;;;;26.60;68.10;;;;;;5090843;28;19928;-67
2023/09/10 10:22:39;;;;;;;;;;;26.70;59.50;;;;;;5108004;27;20236;-66
2023/09/10 10:25:05;;;;;;;;;;;26.80;43.50;;;;;;5091941;28;20380;-66
2023/09/10 10:27:31;;;;;;;;;;;26.70;43.00;;;;;;5090705;28;19920;-66
2023/09/10 10:29:57;;;;;;;;;;;26.70;38.60;;;;;;5124314;27;19923;-66
2023/09/10 10:32:28;;;;;;;;;;;26.70;47.70;;;;;;5090532;28;20124;-66
2023/09/10 10:34:59;;;;;;;;;;;26.90;33.80;;;;;;5090624;28;20057;-65
2023/09/10 10:37:43;;;;;;;;;;;27.10;29.00;;;;;;5091979;28;19987;-65
2023/09/10 10:40:09;;;;;;;;;;;27.10;21.90;;;;;;5090000;28;20337;-66
2023/09/10 10:42:42;;;;;;;;;;;27.00;17.40;;;;;;5090562;28;19977;-67
2023/09/10 10:45:10;;;;;;;;;;;27.20;11.80;;;;;;5125963;27;19924;-66
2023/09/10 10:47:38;;;;;;;;;;;27.10;2.60;;;;;;5094729;27;19924;-66
2023/09/10 10:50:05;;;;;;;;;;;27.10;1.00;;;;;;5095007;27;20187;-65
2023/09/10 10:52:31;;;;;;;;;;;27.20;1.00;;;;;;5094085;28;19930;-65
2023/09/10 10:54:57;;;;;;;;;;;27.20;1.00;;;;;;5128312;27;19923;-65
2023/09/10 10:57:23;;;;;;;;;;;27.40;1.00;;;;;;5093792;28;20272;-66
2023/09/10 10:59:50;;;;;;;;;;;27.30;1.00;;;;;;5110989;27;19927;-65
2023/09/10 11:02:22;;;;;;;;;;;27.50;1.00;;;;;;5095086;28;19927;-66
2023/09/10 11:05:01;;;;;;;;;;;27.90;1.00;;;;;;5095145;28;19931;-66
2023/09/10 11:07:28;;;;;;;;;;;28.00;1.00;;;;;;5094680;28;19924;-67
2023/09/10 11:09:55;;;;;;;;;;;28.00;1.00;;;;;;5093007;28;19928;-67
2023/09/10 11:12:21;;;;;;;;;;;28.10;1.00;;;;;;5094004;28;20180;-66
2023/09/10 11:14:58;;;;;;;;;;;28.30;1.00;;;;;;5076681;28;20503;-67
2023/09/10 11:17:25;;;;;;;;;;;28.80;1.00;;;;;;5093444;28;20182;-66
2023/09/10 11:19:51;;;;;;;;;;;28.90;1.00;;;;;;5093538;28;19924;-67
2023/09/10 11:22:16;;;;;;;;;;;29.00;1.00;;;;;;5095144;28;20328;-67
2023/09/10 11:24:42;;;;;;;;;;;28.80;1.00;;;;;;5093564;28;19930;-64
2023/09/10 11:27:21;;;;;;;;;;;28.60;1.00;;;;;;5110344;27;19924;-66
2023/09/10 11:30:03;;;;;;;;;;;28.60;1.00;;;;;;5092907;28;19919;-66
2023/09/10 11:32:28;;;;;;;;;;;28.80;1.00;;;;;;5110474;27;19923;-66
2023/09/10 11:35:14;;;;;;;;;;;29.00;1.00;;;;;;5093326;28;20429;-66
2023/09/10 11:37:41;;;;;;;;;;;29.00;1.00;;;;;;5092556;28;19940;-66
2023/09/10 11:40:08;;;;;;;;;;;28.80;1.00;;;;;;5110334;27;19923;-66
2023/09/10 11:42:35;;;;;;;;;;;28.70;1.00;;;;;;5093552;28;19976;-67
2023/09/10 11:45:00;;;;;;;;;;;28.90;1.00;;;;;;5127293;27;20420;-67
2023/09/10 11:47:26;;;;;;;;;;;29.10;1.00;;;;;;5127382;27;20145;-67
2023/09/10 11:49:59;;;;;;;;;;;29.10;1.00;;;;;;5076133;28;19924;-67
2023/09/10 11:52:25;;;;;;;;;;;28.90;1.00;;;;;;5127387;27;19935;-67
2023/09/10 11:54:51;;;;;;;;;;;28.90;1.00;;;;;;5094685;28;19924;-66
2023/09/10 11:57:17;;;;;;;;;;;28.90;1.00;;;;;;5093614;27;20010;-66
2023/09/10 11:59:49;;;;;;;;;;;28.80;1.00;;;;;;5090864;28;20242;-66
2023/09/10 12:02:15;;;;;;;;;;;28.90;1.00;;;;;;5124095;27;20445;-67
2023/09/10 12:04:40;;;;;;;;;;;28.90;1.00;;;;;;5092802;28;20099;-67
2023/09/10 12:07:06;;;;;;;;;;;29.00;1.00;;;;;;5076051;28;20217;-66
2023/09/10 12:09:31;;;;;;;;;;;29.10;1.00;;;;;;5126037;27;19923;-66
2023/09/10 12:12:17;;;;;;;;;;;29.20;1.00;;;;;;5093124;28;19920;-66
2023/09/10 12:14:42;;;;;;;;;;;29.30;1.00;;;;;;5091268;28;19924;-65
2023/09/10 12:17:09;;;;;;;;;;;29.40;1.00;;;;;;5092694;28;19924;-66
2023/09/10 12:19:36;;;;;;;;;;;29.60;1.00;;;;;;5092405;28;20344;-67
2023/09/10 12:22:04;;;;;;;;;;;29.90;1.00;;;;;;5107623;27;19923;-67
2023/09/10 12:24:30;;;;;;;;;;;30.10;1.00;;;;;;5092299;28;20007;-66
2023/09/10 12:26:55;;;;;;;;;;;30.30;1.00;;;;;;5092267;28;20314;-66
2023/09/10 12:29:21;;;;;;;;;;;30.50;1.00;;;;;;5091066;28;19950;-66
2023/09/10 12:31:52;;;;;;;;;;;30.50;1.00;;;;;;5090718;28;19923;-65
2023/09/10 12:34:18;;;;;;;;;;;30.40;1.00;;;;;;5091766;28;19947;-66
2023/09/10 12:36:45;;;;;;;;;;;30.30;1.00;;;;;;5092508;28;20353;-65
2023/09/10 12:39:21;;;;;;;;;;;30.40;1.00;;;;;;5089200;28;19931;-66
2023/09/10 12:41:47;;;;;;;;;;;30.50;1.00;;;;;;5122643;27;19934;-65
2023/09/10 12:44:13;;;;;;;;;;;30.60;1.00;;;;;;5092188;28;19924;-66
2023/09/10 12:46:39;;;;;;;;;;;30.60;1.00;;;;;;5090532;28;19923;-66
2023/09/10 12:49:05;;;;;;;;;;;30.90;1.00;;;;;;5091630;28;20430;-66
2023/09/10 12:51:30;;;;;;;;;;;30.90;1.00;;;;;;5091039;28;19923;-66
2023/09/10 12:53:56;;;;;;;;;;;30.80;1.00;;;;;;5092848;28;19963;-66
2023/09/10 12:56:22;;;;;;;;;;;30.90;1.00;;;;;;5085877;28;19934;-66
2023/09/10 12:58:47;;;;;;;;;;;31.00;1.00;;;;;;5090951;28;20491;-66
2023/09/10 13:01:18;;;;;;;;;;;31.10;1.00;;;;;;5074176;28;19924;-66
2023/09/10 13:03:44;;;;;;;;;;;30.90;1.00;;;;;;5092447;28;20281;-66
2023/09/10 13:06:10;;;;;;;;;;;31.10;1.00;;;;;;5073312;28;20211;-67
2023/09/10 13:08:35;;;;;;;;;;;31.20;1.00;;;;;;5121865;27;20264;-66
2023/09/10 13:11:02;;;;;;;;;;;31.00;1.00;;;;;;5091272;28;20245;-65
2023/09/10 13:13:27;;;;;;;;;;;30.90;1.00;;;;;;5125868;27;20364;-66
2023/09/10 13:15:53;;;;;;;;;;;31.00;1.00;;;;;;5091396;27;19927;-66
2023/09/10 13:18:19;;;;;;;;;;;30.80;1.00;;;;;;5090493;28;20000;-67
2023/09/10 13:20:44;;;;;;;;;;;30.70;1.00;;;;;;5091307;28;19966;-66
2023/09/10 13:23:10;;;;;;;;;;;30.70;1.00;;;;;;5122305;27;19924;-65
2023/09/10 13:25:35;;;;;;;;;;;30.80;1.00;;;;;;5089935;28;19965;-66
2023/09/10 13:28:01;;;;;;;;;;;31.10;1.00;;;;;;5123883;27;19924;-66
2023/09/10 13:30:27;;;;;;;;;;;31.40;1.00;;;;;;5073533;28;20090;-65
2023/09/10 13:32:52;;;;;;;;;;;31.40;1.00;;;;;;5072754;28;20159;-65
2023/09/10 13:35:19;;;;;;;;;;;31.30;1.00;;;;;;5106407;27;20138;-66
2023/09/10 13:37:45;;;;;;;;;;;31.50;1.00;;;;;;5089878;28;20541;-65
2023/09/10 13:40:11;;;;;;;;;;;31.60;1.00;;;;;;5089491;28;19923;-64
2023/09/10 13:42:37;;;;;;;;;;;31.40;1.00;;;;;;5088149;28;20594;-65
2023/09/10 13:45:03;;;;;;;;;;;31.70;1.00;;;;;;5090658;28;19931;-65
2023/09/10 13:47:29;;;;;;;;;;;31.70;1.00;;;;;;5091093;28;19924;-65
2023/09/10 13:49:55;;;;;;;;;;;31.80;1.00;;;;;;5106241;27;19963;-65
2023/09/10 13:52:21;;;;;;;;;;;31.60;1.00;;;;;;5088954;28;20042;-65
2023/09/10 13:54:47;;;;;;;;;;;31.60;1.00;;;;;;5090596;28;19963;-65
2023/09/10 13:57:13;;;;;;;;;;;31.50;1.00;;;;;;5107509;28;20780;-65
2023/09/10 13:59:38;;;;;;;;;;;31.60;1.00;;;;;;5089867;28;19920;-65
2023/09/10 14:02:04;;;;;;;;;;;31.60;1.00;;;;;;5089508;28;20383;-65
2023/09/10 14:04:30;;;;;;;;;;;31.30;1.00;;;;;;5089548;28;19934;-65
2023/09/10 14:06:56;;;;;;;;;;;31.50;1.00;;;;;;5107058;27;19924;-65
2023/09/10 14:09:21;;;;;;;;;;;31.40;1.00;;;;;;5073579;28;19931;-65
2023/09/10 14:11:47;;;;;;;;;;;31.40;1.00;;;;;;5090714;28;20377;-65
2023/09/10 14:14:12;;;;;;;;;;;31.60;1.00;;;;;;5125442;27;19931;-65
2023/09/10 14:16:38;;;;;;;;;;;31.60;1.00;;;;;;5091257;28;19943;-66